sensor_id;sensor_type;location;lat;lon;timestamp;pressure;altitude;pressure_sealevel;temperature;humidity
21240;BME280;10778;48.962;9.018;2023-05-02T00:00:41;99178.94;;;9.31;100.00
21240;BME280;10778;48.962;9.018;2023-05-02T00:03:10;99184.31;;;9.30;100.00
21240;BME280;10778;48.962;9.018;2023-05-02T00:05:37;99182.78;;;9.27;100.00
21240;BME280;10778;48.962;9.018;2023-05-02T00:08:03;99182.94;;;9.25;100.00
21240;BME280;10778;48.962;9.018;2023-05-02T00:10:29;99186.25;;;9.28;100.00
21240;BME280;10778;48.962;9.018;2023-05-02T00:12:55;99183.63;;;9.28;100.00
21240;BME280;10778;48.962;9.018;2023-05-02T00:15:21;99179.19;;;9.28;100.00
21240;BME280;10778;48.962;9.018;2023-05-02T00:17:47;99181.69;;;9.30;100.00
21240;BME280;10778;48.962;9.018;2023-05-02T00:20:13;99175.34;;;9.32;100.00
21240;BME280;10778;48.962;9.018;2023-05-02T00:22:40;99182.28;;;9.33;100.00
21240;BME280;10778;48.962;9.018;2023-05-02T00:25:06;99181.69;;;9.30;100.00
21240;BME280;10778;48.962;9.018;2023-05-02T00:27:32;99185.94;;;9.21;100.00
21240;BME280;10778;48.962;9.018;2023-05-02T00:29:59;99184.53;;;9.17;100.00
21240;BME280;10778;48.962;9.018;2023-05-02T00:32:25;99183.56;;;9.18;100.00
21240;BME280;10778;48.962;9.018;2023-05-02T00:34:52;99187.16;;;9.17;100.00
21240;BME280;10778;48.962;9.018;2023-05-02T00:37:18;99183.94;;;9.13;100.00
21240;BME280;10778;48.962;9.018;2023-05-02T00:39:44;99182.28;;;9.12;100.00
21240;BME280;10778;48.962;9.018;2023-05-02T00:42:10;99190.16;;;9.12;100.00
21240;BME280;10778;48.962;9.018;2023-05-02T00:44:36;99191.09;;;9.11;100.00
21240;BME280;10778;48.962;9.018;2023-05-02T00:47:02;99179.31;;;9.05;100.00
21240;BME280;10778;48.962;9.018;2023-05-02T00:49:29;99182.91;;;9.04;100.00
21240;BME280;10778;48.962;9.018;2023-05-02T00:51:57;99179.56;;;9.02;100.00
21240;BME280;10778;48.962;9.018;2023-05-02T00:54:23;99186.84;;;8.99;100.00
21240;BME280;10778;48.962;9.018;2023-05-02T00:56:49;99183.53;;;8.96;100.00
21240;BME280;10778;48.962;9.018;2023-05-02T00:59:15;99188.88;;;8.95;100.00
21240;BME280;10778;48.962;9.018;2023-05-02T01:04:27;99197.00;;;8.92;100.00
21240;BME280;10778;48.962;9.018;2023-05-02T01:07:09;99187.38;;;8.92;100.00
21240;BME280;10778;48.962;9.018;2023-05-02T01:10:00;99178.53;;;8.93;100.00
21240;BME280;10778;48.962;9.018;2023-05-02T01:12:41;99189.72;;;8.95;100.00
21240;BME280;10778;48.962;9.018;2023-05-02T01:15:11;99188.19;;;8.93;100.00
21240;BME280;10778;48.962;9.018;2023-05-02T01:17:41;99191.75;;;8.92;100.00
21240;BME280;10778;48.962;9.018;2023-05-02T01:20:13;99199.28;;;8.96;100.00
21240;BME280;10778;48.962;9.018;2023-05-02T01:22:41;99201.31;;;8.93;100.00
21240;BME280;10778;48.962;9.018;2023-05-02T01:30:35;99198.34;;;8.86;100.00
21240;BME280;10778;48.962;9.018;2023-05-02T01:33:03;99198.41;;;8.75;100.00
21240;BME280;10778;48.962;9.018;2023-05-02T01:35:32;99194.81;;;8.76;100.00
21240;BME280;10778;48.962;9.018;2023-05-02T01:38:01;99200.88;;;8.76;100.00
21240;BME280;10778;48.962;9.018;2023-05-02T01:40:28;99197.09;;;8.69;100.00
21240;BME280;10778;48.962;9.018;2023-05-02T01:42:56;99197.22;;;8.67;100.00
21240;BME280;10778;48.962;9.018;2023-05-02T01:45:24;99207.34;;;8.61;100.00
21240;BME280;10778;48.962;9.018;2023-05-02T01:47:51;99208.66;;;8.55;100.00
21240;BME280;10778;48.962;9.018;2023-05-02T01:50:20;99219.41;;;8.52;100.00
21240;BME280;10778;48.962;9.018;2023-05-02T01:52:50;99217.25;;;8.46;100.00
21240;BME280;10778;48.962;9.018;2023-05-02T01:55:17;99216.78;;;8.40;100.00
21240;BME280;10778;48.962;9.018;2023-05-02T01:57:46;99219.31;;;8.31;100.00
21240;BME280;10778;48.962;9.018;2023-05-02T02:00:15;99224.31;;;8.22;100.00
21240;BME280;10778;48.962;9.018;2023-05-02T02:02:43;99218.00;;;8.25;100.00
21240;BME280;10778;48.962;9.018;2023-05-02T02:05:13;99220.00;;;8.21;100.00
21240;BME280;10778;48.962;9.018;2023-05-02T02:07:39;99225.25;;;8.10;100.00
21240;BME280;10778;48.962;9.018;2023-05-02T02:10:05;99225.25;;;8.10;100.00
21240;BME280;10778;48.962;9.018;2023-05-02T02:12:39;99223.94;;;8.16;100.00
21240;BME280;10778;48.962;9.018;2023-05-02T02:15:18;99227.06;;;8.09;100.00
21240;BME280;10778;48.962;9.018;2023-05-02T02:17:57;99229.91;;;8.06;100.00
21240;BME280;10778;48.962;9.018;2023-05-02T02:20:27;99239.66;;;8.04;100.00
21240;BME280;10778;48.962;9.018;2023-05-02T02:22:55;99244.31;;;8.01;100.00
21240;BME280;10778;48.962;9.018;2023-05-02T02:25:22;99248.00;;;7.98;100.00
21240;BME280;10778;48.962;9.018;2023-05-02T02:27:49;99249.91;;;7.96;100.00
21240;BME280;10778;48.962;9.018;2023-05-02T02:30:15;99248.84;;;7.99;100.00
21240;BME280;10778;48.962;9.018;2023-05-02T02:32:41;99253.25;;;7.98;100.00
21240;BME280;10778;48.962;9.018;2023-05-02T02:35:08;99257.41;;;8.01;100.00
21240;BME280;10778;48.962;9.018;2023-05-02T02:37:39;99261.94;;;7.99;100.00
21240;BME280;10778;48.962;9.018;2023-05-02T02:40:14;99260.28;;;7.97;100.00
21240;BME280;10778;48.962;9.018;2023-05-02T02:48:33;99276.59;;;8.13;100.00
21240;BME280;10778;48.962;9.018;2023-05-02T02:53:33;99269.94;;;8.08;100.00
21240;BME280;10778;48.962;9.018;2023-05-02T02:56:04;99283.75;;;8.10;100.00
21240;BME280;10778;48.962;9.018;2023-05-02T03:01:05;99282.91;;;8.10;100.00
21240;BME280;10778;48.962;9.018;2023-05-02T03:03:38;99288.03;;;8.11;100.00
21240;BME280;10778;48.962;9.018;2023-05-02T03:06:05;99293.38;;;8.10;100.00
21240;BME280;10778;48.962;9.018;2023-05-02T03:08:41;99290.31;;;8.16;100.00
21240;BME280;10778;48.962;9.018;2023-05-02T03:11:12;99291.63;;;8.22;100.00
21240;BME280;10778;48.962;9.018;2023-05-02T03:13:38;99302.09;;;8.33;100.00
21240;BME280;10778;48.962;9.018;2023-05-02T03:18:55;99295.78;;;8.47;100.00
21240;BME280;10778;48.962;9.018;2023-05-02T03:21:21;99312.25;;;8.49;100.00
21240;BME280;10778;48.962;9.018;2023-05-02T03:23:48;99307.72;;;8.40;100.00
21240;BME280;10778;48.962;9.018;2023-05-02T03:26:15;99308.19;;;8.45;100.00
21240;BME280;10778;48.962;9.018;2023-05-02T03:28:43;99317.25;;;8.41;100.00
21240;BME280;10778;48.962;9.018;2023-05-02T03:31:16;99320.81;;;8.40;100.00
21240;BME280;10778;48.962;9.018;2023-05-02T03:33:42;99314.97;;;8.48;100.00
21240;BME280;10778;48.962;9.018;2023-05-02T03:36:09;99317.50;;;8.49;100.00
21240;BME280;10778;48.962;9.018;2023-05-02T03:38:37;99321.06;;;8.48;100.00
21240;BME280;10778;48.962;9.018;2023-05-02T03:41:06;99321.69;;;8.63;100.00
21240;BME280;10778;48.962;9.018;2023-05-02T03:43:33;99320.03;;;8.62;100.00
21240;BME280;10778;48.962;9.018;2023-05-02T03:46:04;99329.19;;;8.57;100.00
21240;BME280;10778;48.962;9.018;2023-05-02T03:48:31;99333.25;;;8.61;100.00
21240;BME280;10778;48.962;9.018;2023-05-02T03:50:57;99335.75;;;8.62;100.00
21240;BME280;10778;48.962;9.018;2023-05-02T03:53:24;99343.03;;;8.59;100.00
21240;BME280;10778;48.962;9.018;2023-05-02T03:55:56;99340.03;;;8.63;100.00
21240;BME280;10778;48.962;9.018;2023-05-02T03:58:31;99343.88;;;8.59;100.00
21240;BME280;10778;48.962;9.018;2023-05-02T04:00:57;99344.22;;;8.54;100.00
21240;BME280;10778;48.962;9.018;2023-05-02T04:03:26;99351.38;;;8.52;100.00
21240;BME280;10778;48.962;9.018;2023-05-02T04:06:03;99353.50;;;8.59;100.00
21240;BME280;10778;48.962;9.018;2023-05-02T04:08:29;99352.56;;;8.60;100.00
21240;BME280;10778;48.962;9.018;2023-05-02T04:10:56;99346.59;;;8.58;100.00
21240;BME280;10778;48.962;9.018;2023-05-02T04:13:22;99346.50;;;8.59;100.00
21240;BME280;10778;48.962;9.018;2023-05-02T04:15:49;99345.53;;;8.60;100.00
21240;BME280;10778;48.962;9.018;2023-05-02T04:18:19;99351.34;;;8.64;100.00
21240;BME280;10778;48.962;9.018;2023-05-02T04:20:45;99350.28;;;8.66;100.00
21240;BME280;10778;48.962;9.018;2023-05-02T04:23:14;99363.06;;;8.71;100.00
21240;BME280;10778;48.962;9.018;2023-05-02T04:25:49;99358.16;;;8.78;100.00
21240;BME280;10778;48.962;9.018;2023-05-02T04:28:15;99364.13;;;8.80;100.00
21240;BME280;10778;48.962;9.018;2023-05-02T04:30:42;99365.91;;;8.79;100.00
21240;BME280;10778;48.962;9.018;2023-05-02T04:33:10;99367.69;;;8.67;100.00
21240;BME280;10778;48.962;9.018;2023-05-02T04:35:39;99373.19;;;8.64;100.00
21240;BME280;10778;48.962;9.018;2023-05-02T04:38:06;99373.66;;;8.70;100.00
21240;BME280;10778;48.962;9.018;2023-05-02T04:40:33;99378.19;;;8.67;100.00
21240;BME280;10778;48.962;9.018;2023-05-02T04:43:04;99383.69;;;8.76;100.00
21240;BME280;10778;48.962;9.018;2023-05-02T04:45:38;99388.44;;;8.71;100.00
21240;BME280;10778;48.962;9.018;2023-05-02T04:48:09;99392.63;;;8.73;100.00
21240;BME280;10778;48.962;9.018;2023-05-02T04:50:37;99393.94;;;8.79;100.00
21240;BME280;10778;48.962;9.018;2023-05-02T04:53:03;99396.06;;;8.85;100.00
21240;BME280;10778;48.962;9.018;2023-05-02T04:55:30;99400.38;;;8.86;100.00
21240;BME280;10778;48.962;9.018;2023-05-02T04:57:56;99397.63;;;8.88;100.00
21240;BME280;10778;48.962;9.018;2023-05-02T05:00:23;99400.88;;;8.91;100.00
21240;BME280;10778;48.962;9.018;2023-05-02T05:02:49;99409.31;;;8.95;100.00
21240;BME280;10778;48.962;9.018;2023-05-02T05:05:16;99410.88;;;8.98;100.00
21240;BME280;10778;48.962;9.018;2023-05-02T05:07:42;99418.41;;;9.02;100.00
21240;BME280;10778;48.962;9.018;2023-05-02T05:10:09;99421.38;;;9.09;100.00
21240;BME280;10778;48.962;9.018;2023-05-02T05:12:41;99424.97;;;9.08;100.00
21240;BME280;10778;48.962;9.018;2023-05-02T05:15:09;99429.81;;;9.13;100.00
21240;BME280;10778;48.962;9.018;2023-05-02T05:17:37;99431.50;;;9.14;100.00
21240;BME280;10778;48.962;9.018;2023-05-02T05:20:04;99439.25;;;9.15;100.00
21240;BME280;10778;48.962;9.018;2023-05-02T05:22:37;99439.13;;;9.28;100.00
21240;BME280;10778;48.962;9.018;2023-05-02T05:25:04;99440.78;;;9.29;100.00
21240;BME280;10778;48.962;9.018;2023-05-02T05:27:33;99442.34;;;9.32;100.00
21240;BME280;10778;48.962;9.018;2023-05-02T05:30:00;99446.53;;;9.23;100.00
21240;BME280;10778;48.962;9.018;2023-05-02T05:32:26;99449.50;;;9.30;100.00
21240;BME280;10778;48.962;9.018;2023-05-02T05:34:53;99451.28;;;9.29;100.00
21240;BME280;10778;48.962;9.018;2023-05-02T05:37:21;99457.25;;;9.31;100.00
21240;BME280;10778;48.962;9.018;2023-05-02T05:39:47;99458.69;;;9.35;100.00
21240;BME280;10778;48.962;9.018;2023-05-02T05:42:13;99458.09;;;9.43;100.00
21240;BME280;10778;48.962;9.018;2023-05-02T05:44:41;99464.25;;;9.53;100.00
21240;BME280;10778;48.962;9.018;2023-05-02T05:47:08;99470.13;;;9.46;100.00
21240;BME280;10778;48.962;9.018;2023-05-02T05:49:34;99470.94;;;9.58;100.00
21240;BME280;10778;48.962;9.018;2023-05-02T05:52:03;99468.91;;;9.61;100.00
21240;BME280;10778;48.962;9.018;2023-05-02T05:54:32;99476.69;;;9.63;100.00
21240;BME280;10778;48.962;9.018;2023-05-02T05:56:59;99468.75;;;9.74;100.00
21240;BME280;10778;48.962;9.018;2023-05-02T05:59:26;99472.13;;;9.76;100.00
21240;BME280;10778;48.962;9.018;2023-05-02T06:01:52;99486.19;;;9.75;100.00
21240;BME280;10778;48.962;9.018;2023-05-02T06:04:21;99477.38;;;9.76;100.00
21240;BME280;10778;48.962;9.018;2023-05-02T06:06:49;99480.13;;;9.75;100.00
21240;BME280;10778;48.962;9.018;2023-05-02T06:09:16;99483.44;;;9.88;100.00
21240;BME280;10778;48.962;9.018;2023-05-02T06:11:42;99477.56;;;9.96;100.00
21240;BME280;10778;48.962;9.018;2023-05-02T06:14:08;99486.63;;;9.92;100.00
21240;BME280;10778;48.962;9.018;2023-05-02T06:16:34;99489.94;;;10.05;100.00
21240;BME280;10778;48.962;9.018;2023-05-02T06:19:00;99487.56;;;10.02;100.00
21240;BME280;10778;48.962;9.018;2023-05-02T06:21:26;99496.28;;;10.03;99.67
21240;BME280;10778;48.962;9.018;2023-05-02T06:23:52;99494.81;;;10.10;100.00
21240;BME280;10778;48.962;9.018;2023-05-02T06:26:18;99502.97;;;10.07;100.00
21240;BME280;10778;48.962;9.018;2023-05-02T06:28:44;99504.09;;;10.25;100.00
21240;BME280;10778;48.962;9.018;2023-05-02T06:31:10;99506.91;;;10.34;99.98
21240;BME280;10778;48.962;9.018;2023-05-02T06:33:36;99511.34;;;10.33;98.48
21240;BME280;10778;48.962;9.018;2023-05-02T06:36:02;99507.84;;;10.44;99.40
21240;BME280;10778;48.962;9.018;2023-05-02T06:38:28;99507.34;;;10.50;98.89
21240;BME280;10778;48.962;9.018;2023-05-02T06:40:55;99522.94;;;10.42;98.85
21240;BME280;10778;48.962;9.018;2023-05-02T06:43:21;99519.41;;;10.53;97.95
21240;BME280;10778;48.962;9.018;2023-05-02T06:45:46;99520.00;;;10.57;96.51
21240;BME280;10778;48.962;9.018;2023-05-02T06:48:13;99524.56;;;10.55;96.62
21240;BME280;10778;48.962;9.018;2023-05-02T06:50:39;99528.53;;;10.70;96.61
21240;BME280;10778;48.962;9.018;2023-05-02T06:53:06;99530.78;;;10.75;95.90
21240;BME280;10778;48.962;9.018;2023-05-02T06:55:35;99541.81;;;10.90;95.92
21240;BME280;10778;48.962;9.018;2023-05-02T06:58:01;99535.25;;;10.63;95.32
21240;BME280;10778;48.962;9.018;2023-05-02T07:00:27;99539.00;;;10.81;96.72
21240;BME280;10778;48.962;9.018;2023-05-02T07:02:53;99545.41;;;10.67;95.62
21240;BME280;10778;48.962;9.018;2023-05-02T07:05:19;99545.84;;;10.73;96.69
21240;BME280;10778;48.962;9.018;2023-05-02T07:07:45;99544.84;;;10.85;96.71
21240;BME280;10778;48.962;9.018;2023-05-02T07:10:11;99548.56;;;10.82;96.20
21240;BME280;10778;48.962;9.018;2023-05-02T07:12:37;99552.91;;;10.93;97.33
21240;BME280;10778;48.962;9.018;2023-05-02T07:15:05;99554.72;;;10.93;96.38
21240;BME280;10778;48.962;9.018;2023-05-02T07:17:31;99557.41;;;11.03;96.05
21240;BME280;10778;48.962;9.018;2023-05-02T07:19:57;99563.84;;;10.89;97.10
21240;BME280;10778;48.962;9.018;2023-05-02T07:22:23;99562.94;;;11.00;95.81
21240;BME280;10778;48.962;9.018;2023-05-02T07:25:00;99567.16;;;11.12;94.66
21240;BME280;10778;48.962;9.018;2023-05-02T07:27:26;99566.50;;;11.20;95.07
21240;BME280;10778;48.962;9.018;2023-05-02T07:29:52;99566.44;;;11.31;95.86
21240;BME280;10778;48.962;9.018;2023-05-02T07:32:19;99568.59;;;11.98;100.00
21240;BME280;10778;48.962;9.018;2023-05-02T07:34:46;99568.09;;;12.04;93.25
21240;BME280;10778;48.962;9.018;2023-05-02T07:37:15;99576.47;;;11.88;91.88
21240;BME280;10778;48.962;9.018;2023-05-02T07:39:41;99569.09;;;11.72;91.55
21240;BME280;10778;48.962;9.018;2023-05-02T07:42:07;99574.09;;;12.16;91.33
21240;BME280;10778;48.962;9.018;2023-05-02T07:44:36;99564.81;;;12.42;89.18
21240;BME280;10778;48.962;9.018;2023-05-02T07:47:02;99567.44;;;12.42;89.34
21240;BME280;10778;48.962;9.018;2023-05-02T07:49:29;99563.72;;;12.44;88.22
21240;BME280;10778;48.962;9.018;2023-05-02T07:51:56;99571.34;;;12.67;87.11
21240;BME280;10778;48.962;9.018;2023-05-02T07:54:22;99571.75;;;12.52;87.21
21240;BME280;10778;48.962;9.018;2023-05-02T07:56:51;99569.69;;;12.46;87.96
21240;BME280;10778;48.962;9.018;2023-05-02T07:59:17;99570.38;;;12.48;87.54
21240;BME280;10778;48.962;9.018;2023-05-02T08:01:43;99571.06;;;12.60;85.95
21240;BME280;10778;48.962;9.018;2023-05-02T08:04:09;99567.44;;;12.51;83.82
21240;BME280;10778;48.962;9.018;2023-05-02T08:06:36;99571.91;;;12.61;87.56
21240;BME280;10778;48.962;9.018;2023-05-02T08:09:02;99577.31;;;12.59;87.33
21240;BME280;10778;48.962;9.018;2023-05-02T08:11:28;99583.81;;;12.85;86.11
21240;BME280;10778;48.962;9.018;2023-05-02T08:13:54;99586.75;;;12.82;85.05
21240;BME280;10778;48.962;9.018;2023-05-02T08:16:20;99591.34;;;12.89;85.42
21240;BME280;10778;48.962;9.018;2023-05-02T08:18:46;99593.50;;;13.14;84.33
21240;BME280;10778;48.962;9.018;2023-05-02T08:21:12;99590.09;;;13.41;83.49
21240;BME280;10778;48.962;9.018;2023-05-02T08:23:40;99584.44;;;14.02;81.28
21240;BME280;10778;48.962;9.018;2023-05-02T08:26:06;99585.41;;;14.01;79.45
21240;BME280;10778;48.962;9.018;2023-05-02T08:28:35;99591.56;;;13.91;80.82
21240;BME280;10778;48.962;9.018;2023-05-02T08:31:01;99600.00;;;13.77;81.30
21240;BME280;10778;48.962;9.018;2023-05-02T08:33:27;99600.94;;;13.58;83.21
21240;BME280;10778;48.962;9.018;2023-05-02T08:35:53;99606.25;;;13.48;83.23
21240;BME280;10778;48.962;9.018;2023-05-02T08:38:19;99608.47;;;13.53;83.52
21240;BME280;10778;48.962;9.018;2023-05-02T08:40:45;99603.59;;;13.48;83.25
21240;BME280;10778;48.962;9.018;2023-05-02T08:43:11;99607.44;;;13.91;81.39
21240;BME280;10778;48.962;9.018;2023-05-02T08:45:42;99597.78;;;13.44;81.52
21240;BME280;10778;48.962;9.018;2023-05-02T08:48:10;99600.94;;;13.58;81.12
21240;BME280;10778;48.962;9.018;2023-05-02T08:50:42;99609.75;;;13.29;82.79
21240;BME280;10778;48.962;9.018;2023-05-02T08:53:11;99612.22;;;13.50;82.39
21240;BME280;10778;48.962;9.018;2023-05-02T08:55:40;99612.63;;;13.55;82.84
21240;BME280;10778;48.962;9.018;2023-05-02T08:58:07;99610.13;;;13.82;81.03
21240;BME280;10778;48.962;9.018;2023-05-02T09:00:38;99609.16;;;14.29;79.86
21240;BME280;10778;48.962;9.018;2023-05-02T09:03:22;99615.56;;;14.36;79.76
21240;BME280;10778;48.962;9.018;2023-05-02T09:05:52;99610.41;;;14.34;80.08
21240;BME280;10778;48.962;9.018;2023-05-02T09:08:22;99606.19;;;14.78;78.95
21240;BME280;10778;48.962;9.018;2023-05-02T09:10:49;99606.38;;;15.29;78.32
21240;BME280;10778;48.962;9.018;2023-05-02T09:16:07;99619.84;;;15.62;71.08
21240;BME280;10778;48.962;9.018;2023-05-02T09:18:35;99613.44;;;15.47;69.17
21240;BME280;10778;48.962;9.018;2023-05-02T09:21:20;99605.19;;;15.85;67.90
21240;BME280;10778;48.962;9.018;2023-05-02T09:23:51;99599.09;;;16.77;68.96
21240;BME280;10778;48.962;9.018;2023-05-02T09:26:36;99605.25;;;16.77;65.67
21240;BME280;10778;48.962;9.018;2023-05-02T09:29:03;99591.31;;;17.09;65.63
21240;BME280;10778;48.962;9.018;2023-05-02T09:31:34;99595.00;;;17.56;63.89
21240;BME280;10778;48.962;9.018;2023-05-02T09:34:12;99594.63;;;17.02;65.15
21240;BME280;10778;48.962;9.018;2023-05-02T09:36:46;99599.28;;;17.73;64.90
21240;BME280;10778;48.962;9.018;2023-05-02T09:39:17;99595.41;;;17.84;64.59
21240;BME280;10778;48.962;9.018;2023-05-02T09:41:45;99598.03;;;17.92;62.61
21240;BME280;10778;48.962;9.018;2023-05-02T09:44:13;99583.75;;;18.87;61.40
21240;BME280;10778;48.962;9.018;2023-05-02T09:49:09;99590.38;;;18.53;61.91
21240;BME280;10778;48.962;9.018;2023-05-02T09:51:36;99588.22;;;18.71;59.98
21240;BME280;10778;48.962;9.018;2023-05-02T09:54:02;99602.50;;;17.52;60.10
21240;BME280;10778;48.962;9.018;2023-05-02T09:56:28;99603.06;;;16.56;63.96
21240;BME280;10778;48.962;9.018;2023-05-02T09:59:14;99614.47;;;15.81;69.99
21240;BME280;10778;48.962;9.018;2023-05-02T10:01:41;99614.22;;;15.65;71.09
21240;BME280;10778;48.962;9.018;2023-05-02T10:04:12;99605.13;;;16.03;70.23
21240;BME280;10778;48.962;9.018;2023-05-02T10:06:43;99606.97;;;16.11;70.63
21240;BME280;10778;48.962;9.018;2023-05-02T10:09:10;99606.94;;;15.94;71.52
21240;BME280;10778;48.962;9.018;2023-05-02T10:11:41;99607.28;;;16.07;71.79
21240;BME280;10778;48.962;9.018;2023-05-02T10:14:10;99611.59;;;15.74;69.05
21240;BME280;10778;48.962;9.018;2023-05-02T10:16:46;99605.06;;;16.62;67.65
21240;BME280;10778;48.962;9.018;2023-05-02T10:19:23;99609.16;;;16.32;68.95
21240;BME280;10778;48.962;9.018;2023-05-02T10:21:49;99609.31;;;16.22;69.13
21240;BME280;10778;48.962;9.018;2023-05-02T10:24:16;99618.53;;;15.93;69.98
21240;BME280;10778;48.962;9.018;2023-05-02T10:26:43;99615.81;;;15.50;72.41
21240;BME280;10778;48.962;9.018;2023-05-02T10:29:09;99622.19;;;15.13;72.61
21240;BME280;10778;48.962;9.018;2023-05-02T10:31:36;99622.06;;;14.96;74.26
21240;BME280;10778;48.962;9.018;2023-05-02T10:34:05;99618.75;;;15.47;72.70
21240;BME280;10778;48.962;9.018;2023-05-02T10:36:35;99611.78;;;16.07;70.07
21240;BME280;10778;48.962;9.018;2023-05-02T10:39:02;99606.25;;;16.76;69.19
21240;BME280;10778;48.962;9.018;2023-05-02T10:41:30;99595.22;;;17.46;66.98
21240;BME280;10778;48.962;9.018;2023-05-02T10:43:58;99597.78;;;17.71;63.76
21240;BME280;10778;48.962;9.018;2023-05-02T10:46:36;99585.88;;;17.98;62.10
21240;BME280;10778;48.962;9.018;2023-05-02T10:49:07;99590.97;;;17.12;64.46
21240;BME280;10778;48.962;9.018;2023-05-02T10:51:35;99587.47;;;17.11;62.78
21240;BME280;10778;48.962;9.018;2023-05-02T10:57:02;99568.16;;;17.34;61.66
21240;BME280;10778;48.962;9.018;2023-05-02T10:59:40;99574.50;;;16.75;61.63
21240;BME280;10778;48.962;9.018;2023-05-02T11:07:30;99571.69;;;16.93;61.07
21240;BME280;10778;48.962;9.018;2023-05-02T11:12:55;99574.66;;;17.71;60.53
21240;BME280;10778;48.962;9.018;2023-05-02T11:20:27;99583.06;;;15.68;65.59
21240;BME280;10778;48.962;9.018;2023-05-02T11:22:55;99586.19;;;15.63;66.60
21240;BME280;10778;48.962;9.018;2023-05-02T11:25:29;99579.91;;;15.64;63.60
21240;BME280;10778;48.962;9.018;2023-05-02T11:27:55;99583.06;;;15.68;62.73
21240;BME280;10778;48.962;9.018;2023-05-02T11:30:42;99582.25;;;16.10;63.88
21240;BME280;10778;48.962;9.018;2023-05-02T11:35:35;99577.66;;;16.45;66.00
21240;BME280;10778;48.962;9.018;2023-05-02T11:38:04;99583.19;;;15.92;67.62
21240;BME280;10778;48.962;9.018;2023-05-02T11:40:31;99582.78;;;16.30;66.21
21240;BME280;10778;48.962;9.018;2023-05-02T11:42:58;99576.78;;;17.28;64.50
21240;BME280;10778;48.962;9.018;2023-05-02T11:45:34;99574.88;;;17.53;62.68
21240;BME280;10778;48.962;9.018;2023-05-02T11:48:17;99576.78;;;17.36;60.62
21240;BME280;10778;48.962;9.018;2023-05-02T11:50:48;99575.25;;;17.50;62.36
21240;BME280;10778;48.962;9.018;2023-05-02T11:53:22;99566.44;;;17.49;60.97
21240;BME280;10778;48.962;9.018;2023-05-02T11:55:57;99584.72;;;17.44;59.93
21240;BME280;10778;48.962;9.018;2023-05-02T11:58:25;99579.34;;;17.61;60.87
21240;BME280;10778;48.962;9.018;2023-05-02T12:00:57;99579.34;;;17.69;57.15
21240;BME280;10778;48.962;9.018;2023-05-02T12:03:29;99580.84;;;17.63;58.95
21240;BME280;10778;48.962;9.018;2023-05-02T12:05:57;99576.88;;;17.59;57.80
21240;BME280;10778;48.962;9.018;2023-05-02T12:08:32;99575.84;;;18.09;57.48
21240;BME280;10778;48.962;9.018;2023-05-02T12:10:58;99574.03;;;18.32;56.88
21240;BME280;10778;48.962;9.018;2023-05-02T12:13:25;99589.06;;;17.85;57.79
21240;BME280;10778;48.962;9.018;2023-05-02T12:15:52;99586.97;;;16.74;59.27
21240;BME280;10778;48.962;9.018;2023-05-02T12:18:21;99587.78;;;16.42;61.16
21240;BME280;10778;48.962;9.018;2023-05-02T12:20:50;99590.63;;;16.57;59.43
21240;BME280;10778;48.962;9.018;2023-05-02T12:23:21;99586.41;;;16.13;61.22
21240;BME280;10778;48.962;9.018;2023-05-02T12:25:48;99590.28;;;16.52;61.04
21240;BME280;10778;48.962;9.018;2023-05-02T12:28:17;99597.09;;;16.54;61.55
21240;BME280;10778;48.962;9.018;2023-05-02T12:30:45;99593.28;;;16.73;61.28
21240;BME280;10778;48.962;9.018;2023-05-02T12:33:11;99594.13;;;17.15;60.69
21240;BME280;10778;48.962;9.018;2023-05-02T12:35:37;99583.09;;;17.83;57.33
21240;BME280;10778;48.962;9.018;2023-05-02T12:38:17;99572.56;;;18.53;55.68
21240;BME280;10778;48.962;9.018;2023-05-02T12:40:46;99579.81;;;18.36;54.74
21240;BME280;10778;48.962;9.018;2023-05-02T12:43:13;99591.50;;;18.58;54.47
21240;BME280;10778;48.962;9.018;2023-05-02T12:45:39;99585.03;;;18.53;53.81
21240;BME280;10778;48.962;9.018;2023-05-02T12:48:21;99592.66;;;17.69;55.69
21240;BME280;10778;48.962;9.018;2023-05-02T12:50:48;99604.25;;;17.12;58.91
21240;BME280;10778;48.962;9.018;2023-05-02T12:53:14;99595.94;;;16.98;60.34
21240;BME280;10778;48.962;9.018;2023-05-02T12:55:40;99592.25;;;17.41;59.07
21240;BME280;10778;48.962;9.018;2023-05-02T12:58:08;99589.25;;;17.35;60.56
21240;BME280;10778;48.962;9.018;2023-05-02T13:00:39;99597.25;;;17.19;60.67
21240;BME280;10778;48.962;9.018;2023-05-02T13:03:07;99598.38;;;17.49;60.37
21240;BME280;10778;48.962;9.018;2023-05-02T13:05:35;99600.75;;;16.70;62.36
21240;BME280;10778;48.962;9.018;2023-05-02T13:08:01;99598.91;;;16.37;61.97
21240;BME280;10778;48.962;9.018;2023-05-02T13:10:27;99600.59;;;16.88;60.25
21240;BME280;10778;48.962;9.018;2023-05-02T13:12:54;99591.69;;;18.02;57.37
21240;BME280;10778;48.962;9.018;2023-05-02T13:15:20;99599.56;;;18.50;55.80
21240;BME280;10778;48.962;9.018;2023-05-02T13:17:46;99594.69;;;18.77;53.46
21240;BME280;10778;48.962;9.018;2023-05-02T13:20:13;99591.69;;;18.95;52.54
21240;BME280;10778;48.962;9.018;2023-05-02T13:22:39;99582.03;;;19.32;53.27
21240;BME280;10778;48.962;9.018;2023-05-02T13:25:06;99590.25;;;19.08;54.95
21240;BME280;10778;48.962;9.018;2023-05-02T13:27:32;99583.81;;;18.40;54.52
21240;BME280;10778;48.962;9.018;2023-05-02T13:30:01;99588.78;;;18.67;52.31
21240;BME280;10778;48.962;9.018;2023-05-02T13:32:28;99580.59;;;18.68;52.43
21240;BME280;10778;48.962;9.018;2023-05-02T13:34:54;99576.59;;;19.56;51.70
21240;BME280;10778;48.962;9.018;2023-05-02T13:41:08;99576.97;;;19.53;51.02
21240;BME280;10778;48.962;9.018;2023-05-02T13:43:34;99571.53;;;19.46;51.50
21240;BME280;10778;48.962;9.018;2023-05-02T13:46:00;99578.28;;;18.18;52.55
21240;BME280;10778;48.962;9.018;2023-05-02T13:48:26;99586.81;;;17.74;53.68
21240;BME280;10778;48.962;9.018;2023-05-02T13:50:52;99577.66;;;19.01;54.05
21240;BME280;10778;48.962;9.018;2023-05-02T13:53:18;99578.06;;;19.43;54.16
21240;BME280;10778;48.962;9.018;2023-05-02T13:55:44;99570.88;;;19.14;52.54